createdAt,value
2018-05-21T00:02:13.877Z,3.20
2018-05-21T00:04:41.375Z,3.03
2018-05-21T00:07:08.876Z,2.57
2018-05-21T00:09:36.400Z,2.70
2018-05-21T00:12:03.963Z,3.97
2018-05-21T00:14:31.482Z,3.47
2018-05-21T00:16:58.976Z,3.57
2018-05-21T00:19:26.515Z,3.47
2018-05-21T00:21:54.027Z,3.57
2018-05-21T00:24:21.554Z,5.17
2018-05-21T00:26:49.902Z,3.20
2018-05-21T00:29:17.556Z,3.13
2018-05-21T00:31:45.222Z,3.40
2018-05-21T00:34:12.707Z,3.30
2018-05-21T00:36:41.114Z,3.80
2018-05-21T00:39:08.661Z,4.30
2018-05-21T00:41:36.264Z,5.53
2018-05-21T00:44:04.552Z,3.20
2018-05-21T00:46:32.883Z,5.27
2018-05-21T00:49:00.500Z,3.80
2018-05-21T00:51:28.014Z,3.67
2018-05-21T00:53:55.605Z,3.20
2018-05-21T00:56:23.098Z,3.63
2018-05-21T00:58:50.596Z,3.70
2018-05-21T01:01:18.091Z,3.47
2018-05-21T01:03:45.635Z,3.53
2018-05-21T01:06:13.128Z,3.50
2018-05-21T01:08:40.882Z,3.70
2018-05-21T01:11:08.401Z,3.20
2018-05-21T01:13:35.990Z,4.20
2018-05-21T01:16:03.787Z,3.83
2018-05-21T01:18:31.286Z,3.53
2018-05-21T01:20:58.938Z,3.10
2018-05-21T01:23:27.015Z,3.33
2018-05-21T01:25:54.766Z,3.13
2018-05-21T01:28:22.875Z,3.47
2018-05-21T01:30:51.341Z,4.10
2018-05-21T01:33:18.910Z,3.80
2018-05-21T01:35:46.411Z,3.20
2018-05-21T01:38:14.280Z,3.57
2018-05-21T01:40:41.821Z,3.03
2018-05-21T01:43:09.378Z,3.30
2018-05-21T01:45:36.884Z,3.83
2018-05-21T01:48:04.399Z,3.67
2018-05-21T01:50:31.905Z,2.83
2018-05-21T01:52:59.404Z,3.33
2018-05-21T01:55:27.729Z,3.00
2018-05-21T01:57:55.245Z,3.50
2018-05-21T02:00:22.996Z,3.17
2018-05-21T02:02:50.553Z,3.60
2018-05-21T02:05:18.221Z,3.00
2018-05-21T02:07:45.728Z,3.03
2018-05-21T02:10:13.229Z,3.23
2018-05-21T02:12:41.227Z,3.03
2018-05-21T02:15:09.491Z,3.07
2018-05-21T02:17:37.948Z,3.47
2018-05-21T02:20:05.749Z,3.13
2018-05-21T02:22:33.210Z,2.97
2018-05-21T02:25:00.759Z,2.83
2018-05-21T02:27:29.151Z,3.90
2018-05-21T02:29:56.837Z,3.03
2018-05-21T02:32:24.372Z,3.10
2018-05-21T02:34:53.229Z,5.20
2018-05-21T02:37:20.743Z,3.33
2018-05-21T02:39:48.253Z,3.23
2018-05-21T02:42:15.856Z,3.37
2018-05-21T02:44:43.500Z,2.50
2018-05-21T02:47:11.901Z,2.90
2018-05-21T02:49:39.557Z,4.03
2018-05-21T02:52:07.063Z,3.10
2018-05-21T02:54:34.593Z,2.70
2018-05-21T02:57:02.097Z,2.80
2018-05-21T02:59:29.638Z,3.10
2018-05-21T03:01:57.135Z,3.00
2018-05-21T03:04:25.547Z,3.40
2018-05-21T03:06:53.131Z,2.90
2018-05-21T03:09:21.615Z,2.80
2018-05-21T03:11:49.113Z,3.37
2018-05-21T03:14:16.769Z,3.20
2018-05-21T03:16:45.051Z,2.80
2018-05-21T03:19:12.733Z,3.40
2018-05-21T03:21:40.285Z,3.07
2018-05-21T03:24:07.824Z,2.93
2018-05-21T03:26:35.348Z,2.83
2018-05-21T03:29:02.845Z,2.97
2018-05-21T03:31:31.326Z,2.90
2018-05-21T03:33:59.611Z,2.67
2018-05-21T03:36:27.905Z,3.10
2018-05-21T03:38:56.278Z,2.93
2018-05-21T03:41:23.817Z,3.40
2018-05-21T03:43:51.445Z,6.53
2018-05-21T03:46:18.945Z,4.03
2018-05-21T03:48:47.222Z,3.63
2018-05-21T03:51:15.495Z,3.30
2018-05-21T03:53:44.524Z,3.17
2018-05-21T03:56:12.027Z,3.10
2018-05-21T03:58:51.557Z,3.10
2018-05-21T04:01:30.791Z,2.67
2018-05-21T04:03:58.501Z,2.93
2018-05-21T04:06:26.071Z,3.50
2018-05-21T04:08:53.569Z,3.57
2018-05-21T04:11:21.120Z,3.50
2018-05-21T04:13:48.842Z,3.60
2018-05-21T04:16:16.356Z,3.73
2018-05-21T04:18:44.034Z,4.30
2018-05-21T04:21:12.260Z,3.47
2018-05-21T04:23:41.789Z,3.53
2018-05-21T04:26:09.510Z,3.60
2018-05-21T04:28:37.791Z,4.00
2018-05-21T04:31:05.308Z,3.80
2018-05-21T04:33:32.988Z,4.20
2018-05-21T04:36:00.546Z,3.93
2018-05-21T04:38:28.108Z,4.20
2018-05-21T04:40:55.924Z,4.30
2018-05-21T04:43:23.488Z,4.00
2018-05-21T04:45:51.157Z,3.90
2018-05-21T04:48:18.706Z,4.40
2018-05-21T04:50:46.383Z,4.22
2018-05-21T04:53:13.953Z,4.45
2018-05-21T04:55:41.457Z,4.18
2018-05-21T04:58:08.989Z,5.12
2018-05-21T05:00:36.512Z,4.57
2018-05-21T05:03:04.849Z,4.65
2018-05-21T05:05:32.408Z,5.22
2018-05-21T05:07:59.960Z,4.93
2018-05-21T05:10:27.539Z,5.12
2018-05-21T05:12:56.158Z,4.45
2018-05-21T05:15:23.653Z,4.32
2018-05-21T05:17:51.144Z,5.18
2018-05-21T05:20:18.836Z,4.22
2018-05-21T05:22:46.388Z,4.53
2018-05-21T05:25:13.948Z,4.25
2018-05-21T05:27:41.814Z,5.15
2018-05-21T05:30:09.320Z,4.72
2018-05-21T05:32:36.868Z,4.30
2018-05-21T05:35:04.396Z,4.90
2018-05-21T05:37:31.923Z,4.55
2018-05-21T05:39:59.572Z,4.70
2018-05-21T05:42:27.244Z,4.90
2018-05-21T05:44:55.553Z,4.47
2018-05-21T05:47:23.110Z,4.97
2018-05-21T05:49:50.651Z,4.80
2018-05-21T05:52:18.910Z,4.78
2018-05-21T05:54:46.497Z,4.40
2018-05-21T05:57:14.027Z,4.75
2018-05-21T05:59:42.142Z,4.62
2018-05-21T06:02:09.664Z,4.60
2018-05-21T06:04:37.483Z,4.55
2018-05-21T06:07:07.249Z,4.47
2018-05-21T06:09:35.343Z,4.28
2018-05-21T06:12:02.911Z,4.45
2018-05-21T06:14:30.437Z,3.97
2018-05-21T06:16:58.027Z,4.60
2018-05-21T06:19:26.273Z,4.00
2018-05-21T06:21:54.728Z,4.07
2018-05-21T06:24:22.234Z,4.28
2018-05-21T06:26:49.813Z,3.92
2018-05-21T06:29:17.364Z,4.37
2018-05-21T06:31:44.989Z,3.92
2018-05-21T06:34:13.271Z,4.20
2018-05-21T06:36:41.563Z,3.92
2018-05-21T06:39:09.107Z,4.00
2018-05-21T06:41:37.412Z,3.95
2018-05-21T06:44:05.019Z,3.95
2018-05-21T06:46:32.486Z,4.10
2018-05-21T06:49:00.187Z,4.35
2018-05-21T06:51:28.604Z,4.10
2018-05-21T06:53:56.121Z,4.20
2018-05-21T06:56:23.856Z,3.45
2018-05-21T06:58:51.383Z,3.50
2018-05-21T07:01:18.910Z,3.58
2018-05-21T07:03:46.664Z,3.28
2018-05-21T07:06:14.167Z,3.40
2018-05-21T07:08:43.009Z,3.28
2018-05-21T07:11:11.309Z,3.70
2018-05-21T07:13:38.949Z,3.22
2018-05-21T07:16:06.489Z,3.00
2018-05-21T07:18:34.653Z,3.03
2018-05-21T07:21:02.272Z,3.03
2018-05-21T07:23:30.353Z,3.20
2018-05-21T07:25:58.041Z,3.70
2018-05-21T07:28:25.572Z,2.87
2018-05-21T07:30:53.419Z,3.30
2018-05-21T07:33:22.653Z,3.30
2018-05-21T07:35:50.991Z,2.55
2018-05-21T07:38:18.685Z,2.70
2018-05-21T07:40:46.201Z,2.72
2018-05-21T07:43:13.730Z,2.78
2018-05-21T07:45:41.291Z,2.67
2018-05-21T07:48:09.045Z,2.70
2018-05-21T07:50:36.980Z,2.58
2018-05-21T07:53:04.593Z,2.58
2018-05-21T07:55:32.242Z,3.05
2018-05-21T07:57:59.981Z,2.40
2018-05-21T08:00:27.596Z,2.60
2018-05-21T08:02:55.193Z,2.37
2018-05-21T08:05:22.922Z,2.58
2018-05-21T08:07:50.429Z,2.37
2018-05-21T08:10:18.019Z,2.65
2018-05-21T08:12:45.532Z,2.50
2018-05-21T08:15:13.084Z,2.80
2018-05-21T08:17:41.051Z,2.35
2018-05-21T08:20:09.415Z,2.17
2018-05-21T08:22:36.928Z,2.50
2018-05-21T08:25:05.227Z,2.37
2018-05-21T08:27:32.989Z,2.17
2018-05-21T08:30:00.530Z,2.30
2018-05-21T08:32:28.106Z,2.37
2018-05-21T08:34:55.626Z,2.60
2018-05-21T08:37:23.159Z,2.40
2018-05-21T08:39:51.447Z,2.33
2018-05-21T08:42:19.870Z,2.10
2018-05-21T08:44:47.370Z,3.20
2018-05-21T08:47:14.892Z,2.25
2018-05-21T08:49:42.400Z,2.62
2018-05-21T08:52:10.481Z,2.40
2018-05-21T08:54:37.997Z,2.17
2018-05-21T08:57:06.359Z,2.97
2018-05-21T08:59:34.217Z,2.20
2018-05-21T09:02:01.778Z,2.73
2018-05-21T09:04:29.315Z,2.30
2018-05-21T09:06:57.583Z,2.47
2018-05-21T09:09:25.105Z,2.63
2018-05-21T09:11:52.838Z,2.27
2018-05-21T09:14:20.352Z,2.10
2018-05-21T09:16:47.949Z,2.83
2018-05-21T09:19:15.467Z,2.70
2018-05-21T09:21:42.965Z,2.83
2018-05-21T09:24:11.293Z,2.97
2018-05-21T09:26:39.072Z,2.70
2018-05-21T09:29:06.996Z,2.67
2018-05-21T09:31:35.081Z,2.60
2018-05-21T09:34:02.893Z,2.20
2018-05-21T09:36:30.793Z,2.30
2018-05-21T09:38:58.302Z,2.67
2018-05-21T09:41:26.690Z,2.87
2018-05-21T09:43:55.197Z,2.60
2018-05-21T09:46:23.451Z,2.47
2018-05-21T09:48:50.989Z,3.27
2018-05-21T09:51:18.617Z,3.50
2018-05-21T09:53:46.223Z,2.80
2018-05-21T09:56:13.963Z,3.13
2018-05-21T09:58:41.513Z,2.70
2018-05-21T10:01:09.101Z,2.83
2018-05-21T10:03:36.621Z,1.60
2018-05-21T10:06:04.121Z,2.50
2018-05-21T10:08:32.603Z,2.23
2018-05-21T10:11:00.206Z,2.50
2018-05-21T10:13:27.725Z,2.60
2018-05-21T10:15:55.404Z,3.43
2018-05-21T10:18:23.717Z,2.93
2018-05-21T10:20:51.311Z,2.40
2018-05-21T10:23:18.862Z,3.00
2018-05-21T10:25:46.403Z,3.53
2018-05-21T10:28:13.933Z,2.97
2018-05-21T10:30:41.556Z,3.13
2018-05-21T10:33:09.080Z,2.93
2018-05-21T10:35:36.619Z,2.67
2018-05-21T10:38:04.163Z,2.90
2018-05-21T10:40:31.715Z,3.30
2018-05-21T10:42:59.237Z,2.50
2018-05-21T10:45:26.820Z,2.80
2018-05-21T10:47:54.442Z,3.20
2018-05-21T10:50:22.139Z,3.03
2018-05-21T10:52:49.769Z,3.10
2018-05-21T10:55:17.318Z,3.17
2018-05-21T10:57:44.972Z,2.93
2018-05-21T11:00:12.435Z,2.80
2018-05-21T11:02:40.052Z,2.93
2018-05-21T11:05:07.675Z,3.50
2018-05-21T11:07:35.405Z,3.10
2018-05-21T11:10:03.097Z,3.10
2018-05-21T11:12:30.869Z,3.33
2018-05-21T11:14:58.525Z,3.07
2018-05-21T11:17:26.053Z,3.20
2018-05-21T11:19:55.234Z,3.33
2018-05-21T11:22:23.074Z,2.40
2018-05-21T11:24:50.791Z,3.10
2018-05-21T11:27:18.313Z,2.60
2018-05-21T11:29:45.841Z,2.90
2018-05-21T11:32:13.544Z,3.13
2018-05-21T11:34:41.261Z,3.10
2018-05-21T11:37:08.783Z,2.97
2018-05-21T11:39:37.089Z,2.60
2018-05-21T11:42:04.608Z,3.10
2018-05-21T11:44:32.215Z,2.60
2018-05-21T11:46:59.778Z,2.87
2018-05-21T11:49:27.459Z,2.40
2018-05-21T11:51:54.997Z,2.60
2018-05-21T11:54:22.546Z,2.53
2018-05-21T11:56:50.752Z,1.93
2018-05-21T11:59:18.287Z,2.53
2018-05-21T12:01:45.798Z,2.60
2018-05-21T12:04:14.835Z,4.43
2018-05-21T12:06:42.387Z,5.73
2018-05-21T12:09:10.677Z,2.50
2018-05-21T12:11:38.280Z,2.00
2018-05-21T12:14:05.968Z,2.60
2018-05-21T12:16:33.567Z,2.60
2018-05-21T12:19:01.136Z,2.47
2018-05-21T12:21:28.898Z,2.30
2018-05-21T12:23:56.413Z,2.30
2018-05-21T12:26:24.036Z,2.40
2018-05-21T12:28:51.545Z,2.27
2018-05-21T12:31:19.896Z,2.23
2018-05-21T12:33:48.015Z,2.50
2018-05-21T12:36:15.553Z,2.30
2018-05-21T12:38:44.286Z,2.50
2018-05-21T12:41:11.849Z,3.40
2018-05-21T12:43:39.708Z,2.20
2018-05-21T12:46:07.255Z,2.53
2018-05-21T12:48:35.827Z,2.60
2018-05-21T12:51:04.417Z,2.33
2018-05-21T12:53:32.855Z,2.30
2018-05-21T12:56:01.266Z,2.47
2018-05-21T12:58:28.906Z,2.20
2018-05-21T13:00:56.780Z,2.00
2018-05-21T13:03:26.002Z,2.43
2018-05-21T13:05:53.607Z,2.60
2018-05-21T13:08:21.371Z,2.07
2018-05-21T13:10:49.241Z,2.57
2018-05-21T13:13:16.976Z,2.47
2018-05-21T13:15:44.489Z,2.50
2018-05-21T13:18:12.122Z,2.77
2018-05-21T13:20:40.203Z,2.60
2018-05-21T13:23:07.743Z,2.40
2018-05-21T13:25:36.117Z,2.20
2018-05-21T13:28:03.623Z,2.60
2018-05-21T13:30:31.920Z,2.13
2018-05-21T13:32:59.482Z,2.00
2018-05-21T13:35:27.885Z,2.37
2018-05-21T13:37:55.444Z,2.13
2018-05-21T13:40:23.207Z,2.53
2018-05-21T13:42:51.063Z,1.80
2018-05-21T13:45:18.591Z,2.03
2018-05-21T13:47:46.144Z,2.13
2018-05-21T13:50:13.865Z,2.37
2018-05-21T13:52:41.501Z,2.50
2018-05-21T13:55:09.036Z,2.43
2018-05-21T13:57:36.749Z,2.70
2018-05-21T14:00:04.270Z,2.10
2018-05-21T14:02:32.114Z,2.80
2018-05-21T14:05:00.386Z,2.40
2018-05-21T14:07:28.250Z,2.10
2018-05-21T14:09:56.537Z,2.10
2018-05-21T14:12:24.084Z,2.17
2018-05-21T14:14:51.679Z,2.33
2018-05-21T14:17:20.363Z,2.57
2018-05-21T14:19:48.110Z,2.50
2018-05-21T14:22:15.621Z,2.93
2018-05-21T14:24:43.154Z,2.30
2018-05-21T14:27:10.909Z,2.73
2018-05-21T14:29:39.240Z,2.10
2018-05-21T14:32:06.796Z,2.47
2018-05-21T14:34:34.318Z,2.70
2018-05-21T14:37:02.716Z,2.30
2018-05-21T14:39:30.557Z,2.30
2018-05-21T14:41:58.072Z,2.30
2018-05-21T14:44:25.626Z,2.40
2018-05-21T14:46:53.415Z,2.60
2018-05-21T14:49:20.969Z,2.50
2018-05-21T14:51:48.484Z,2.33
2018-05-21T14:54:15.981Z,2.60
2018-05-21T14:56:43.591Z,2.73
2018-05-21T14:59:11.135Z,2.30
2018-05-21T15:01:38.705Z,2.30
2018-05-21T15:04:06.596Z,2.70
2018-05-21T15:06:34.061Z,2.57
2018-05-21T15:09:01.642Z,2.60
2018-05-21T15:11:29.861Z,2.33
2018-05-21T15:13:58.012Z,2.53
2018-05-21T15:16:25.571Z,2.60
2018-05-21T15:18:53.100Z,2.50
2018-05-21T15:21:21.055Z,2.23
2018-05-21T15:23:48.559Z,2.30
2018-05-21T15:26:16.086Z,2.30
2018-05-21T15:28:43.713Z,2.30
2018-05-21T15:31:12.251Z,2.50
2018-05-21T15:33:40.561Z,1.83
2018-05-21T15:36:08.892Z,2.30
2018-05-21T15:38:36.510Z,2.87
2018-05-21T15:41:04.209Z,2.80
2018-05-21T15:43:31.826Z,2.60
2018-05-21T15:45:59.413Z,2.40
2018-05-21T15:48:26.936Z,2.70
2018-05-21T15:50:55.033Z,2.90
2018-05-21T15:53:22.601Z,2.20
2018-05-21T15:55:50.147Z,2.80
2018-05-21T15:58:18.488Z,2.50
2018-05-21T16:00:45.995Z,2.60
2018-05-21T16:03:13.563Z,2.63
2018-05-21T16:05:41.797Z,2.93
2018-05-21T16:08:10.093Z,2.60
2018-05-21T16:10:38.205Z,2.80
2018-05-21T16:13:05.818Z,2.17
2018-05-21T16:15:34.721Z,2.40
2018-05-21T16:18:03.064Z,2.53
2018-05-21T16:20:31.136Z,3.53
2018-05-21T16:22:58.874Z,2.77
2018-05-21T16:25:27.443Z,2.17
2018-05-21T16:27:55.015Z,2.63
2018-05-21T16:30:23.951Z,2.67
2018-05-21T16:32:52.449Z,2.77
2018-05-21T16:35:20.896Z,2.60
2018-05-21T16:37:48.773Z,2.40
2018-05-21T16:40:16.313Z,2.40
2018-05-21T16:42:43.871Z,2.53
2018-05-21T16:45:11.559Z,2.60
2018-05-21T16:47:39.616Z,3.00
2018-05-21T16:50:07.210Z,2.93
2018-05-21T16:52:35.197Z,2.20
2018-05-21T16:55:02.764Z,2.40
2018-05-21T16:57:31.038Z,2.40
2018-05-21T16:59:58.618Z,2.97
2018-05-21T17:02:26.581Z,2.77
2018-05-21T17:04:54.263Z,2.57
2018-05-21T17:07:21.970Z,2.40
2018-05-21T17:09:49.379Z,2.60
2018-05-21T17:12:16.891Z,2.50
2018-05-21T17:14:45.398Z,2.63
2018-05-21T17:17:13.741Z,2.67
2018-05-21T17:19:41.564Z,2.33
2018-05-21T17:22:09.105Z,2.60
2018-05-21T17:24:36.843Z,2.83
2018-05-21T17:27:04.443Z,2.73
2018-05-21T17:29:32.436Z,2.80
2018-05-21T17:32:00.602Z,3.63
2018-05-21T17:34:28.238Z,3.00
2018-05-21T17:36:55.915Z,2.87
2018-05-21T17:39:23.457Z,2.80
2018-05-21T17:41:51.001Z,2.37
2018-05-21T17:44:19.337Z,3.10
2018-05-21T17:46:47.197Z,2.40
2018-05-21T17:49:15.942Z,2.90
2018-05-21T17:51:44.494Z,2.50
2018-05-21T17:54:11.983Z,2.07
2018-05-21T17:56:40.305Z,2.70
2018-05-21T17:59:08.003Z,3.13
2018-05-21T18:01:35.494Z,2.80
2018-05-21T18:04:03.737Z,3.13
2018-05-21T18:06:31.394Z,3.07
2018-05-21T18:08:58.972Z,3.03
2018-05-21T18:11:26.514Z,2.17
2018-05-21T18:13:54.889Z,2.70
2018-05-21T18:16:22.529Z,2.80
2018-05-21T18:18:50.264Z,2.83
2018-05-21T18:21:17.968Z,2.60
2018-05-21T18:23:45.501Z,2.80
2018-05-21T18:26:13.008Z,3.07
2018-05-21T18:28:40.533Z,3.03
2018-05-21T18:31:08.040Z,3.03
2018-05-21T18:33:35.611Z,2.50
2018-05-21T18:36:03.384Z,2.60
2018-05-21T18:38:30.829Z,3.07
2018-05-21T18:40:59.159Z,5.20
2018-05-21T18:43:27.112Z,4.20
2018-05-21T18:45:55.262Z,3.63
2018-05-21T18:48:22.952Z,2.67
2018-05-21T18:50:50.518Z,3.17
2018-05-21T18:53:18.045Z,4.20
2018-05-21T18:55:45.661Z,3.57
2018-05-21T18:58:13.274Z,3.27
2018-05-21T19:00:41.010Z,3.60
2018-05-21T19:03:08.675Z,3.03
2018-05-21T19:05:37.315Z,3.57
2018-05-21T19:08:05.462Z,3.80
2018-05-21T19:10:33.099Z,2.47
2018-05-21T19:13:01.526Z,3.33
2018-05-21T19:15:29.165Z,3.47
2018-05-21T19:17:56.726Z,3.30
2018-05-21T19:20:24.772Z,3.23
2018-05-21T19:22:52.489Z,3.40
2018-05-21T19:25:20.245Z,3.20
2018-05-21T19:27:47.759Z,3.60
2018-05-21T19:30:15.300Z,3.40
2018-05-21T19:32:43.129Z,3.87
2018-05-21T19:35:10.877Z,3.87
2018-05-21T19:37:38.626Z,3.37
2018-05-21T19:40:06.322Z,3.47
2018-05-21T19:42:34.178Z,3.57
2018-05-21T19:45:02.465Z,3.33
2018-05-21T19:47:30.617Z,3.47
2018-05-21T19:49:58.308Z,3.50
2018-05-21T19:52:25.885Z,2.87
2018-05-21T19:54:53.605Z,3.80
2018-05-21T19:57:21.200Z,4.37
2018-05-21T19:59:48.854Z,4.00
2018-05-21T20:02:16.505Z,4.10
2018-05-21T20:04:44.206Z,3.77
2018-05-21T20:07:11.759Z,3.63
2018-05-21T20:09:39.408Z,3.90
2018-05-21T20:12:07.475Z,3.53
2018-05-21T20:14:35.025Z,3.93
2018-05-21T20:17:02.633Z,4.10
2018-05-21T20:19:30.998Z,3.97
2018-05-21T20:21:58.560Z,3.83
2018-05-21T20:24:26.200Z,3.23
2018-05-21T20:26:53.766Z,3.53
2018-05-21T20:29:21.752Z,5.97
2018-05-21T20:31:49.326Z,3.90
2018-05-21T20:34:16.956Z,3.50
2018-05-21T20:36:44.501Z,3.10
2018-05-21T20:39:12.028Z,3.53
2018-05-21T20:41:39.839Z,3.73
2018-05-21T20:44:07.416Z,3.53
2018-05-21T20:46:35.099Z,3.13
2018-05-21T20:49:03.416Z,3.13
2018-05-21T20:51:30.988Z,3.00
2018-05-21T20:53:58.527Z,3.63
2018-05-21T20:56:27.523Z,2.93
2018-05-21T20:58:55.515Z,3.23
2018-05-21T21:01:23.235Z,3.50
2018-05-21T21:03:51.337Z,3.97
2018-05-21T21:06:18.980Z,3.57
2018-05-21T21:08:46.507Z,4.07
2018-05-21T21:11:14.815Z,3.27
2018-05-21T21:13:42.355Z,3.93
2018-05-21T21:16:11.095Z,3.87
2018-05-21T21:18:39.165Z,4.00
2018-05-21T21:21:06.751Z,4.00
2018-05-21T21:23:35.522Z,3.70
2018-05-21T21:26:03.085Z,3.10
2018-05-21T21:28:30.577Z,3.30
2018-05-21T21:30:58.861Z,3.77
2018-05-21T21:33:26.560Z,3.47
2018-05-21T21:35:54.149Z,3.10
2018-05-21T21:38:21.621Z,3.40
2018-05-21T21:40:49.121Z,3.20
2018-05-21T21:43:17.778Z,3.43
2018-05-21T21:45:45.308Z,2.97
2018-05-21T21:48:12.935Z,3.30
2018-05-21T21:50:40.441Z,2.80
2018-05-21T21:53:08.772Z,3.20
2018-05-21T21:55:36.296Z,3.03
2018-05-21T21:58:03.812Z,2.93
2018-05-21T22:00:31.782Z,2.97
2018-05-21T22:02:59.503Z,3.17
2018-05-21T22:05:27.037Z,3.60
2018-05-21T22:07:54.548Z,3.03
2018-05-21T22:10:22.286Z,3.03
2018-05-21T22:12:49.873Z,3.07
2018-05-21T22:15:17.446Z,2.90
2018-05-21T22:17:44.966Z,3.30
2018-05-21T22:20:12.500Z,3.70
2018-05-21T22:22:40.013Z,3.20
2018-05-21T22:25:07.514Z,3.17
2018-05-21T22:27:35.480Z,3.03
2018-05-21T22:30:03.227Z,3.20
2018-05-21T22:32:30.900Z,3.60
2018-05-21T22:34:58.401Z,3.10
2018-05-21T22:37:25.902Z,3.67
2018-05-21T22:39:54.141Z,3.80
2018-05-21T22:42:22.427Z,3.77
2018-05-21T22:44:49.949Z,2.77
2018-05-21T22:47:17.531Z,3.60
2018-05-21T22:49:45.542Z,3.27
2018-05-21T22:52:13.689Z,3.13
2018-05-21T22:54:42.095Z,3.73
2018-05-21T22:57:09.648Z,3.20
2018-05-21T22:59:37.383Z,3.33
2018-05-21T23:02:04.923Z,3.40
2018-05-21T23:04:32.439Z,3.50
2018-05-21T23:07:00.066Z,3.20
2018-05-21T23:09:27.630Z,3.63
2018-05-21T23:11:56.732Z,3.23
2018-05-21T23:14:25.124Z,3.50
2018-05-21T23:16:52.698Z,3.00
2018-05-21T23:19:20.365Z,3.20
2018-05-21T23:21:47.933Z,3.40
2018-05-21T23:24:15.492Z,3.13
2018-05-21T23:26:43.312Z,3.33
2018-05-21T23:29:11.751Z,3.20
2018-05-21T23:31:41.067Z,3.23
2018-05-21T23:34:08.670Z,3.37
2018-05-21T23:36:36.593Z,3.40
2018-05-21T23:39:04.831Z,3.30
2018-05-21T23:41:32.361Z,3.40
2018-05-21T23:44:00.250Z,3.03
2018-05-21T23:46:27.824Z,3.30
2018-05-21T23:48:55.374Z,3.83
2018-05-21T23:51:22.929Z,3.60
2018-05-21T23:53:50.445Z,3.40
2018-05-21T23:56:18.265Z,3.17
2018-05-21T23:58:45.810Z,3.30
